Time;durP1;ratioP1;P1;durP2;ratioP2;P2;SDS_P1;SDS_P2;PMS_P1;PMS_P2;Temp;Humidity;BMP_temperature;BMP_pressure;BME280_temperature;BME280_humidity;BME280_pressure;Samples;Min_cycle;Max_cycle;Signal;HPM_P1;HPM_P2
2024/02/06 00:02:14;;;;;;;121.18;112.65;;;9.80;99.90;;;;;;5027805;28;20037;-74
2024/02/06 00:04:40;;;;;;;124.97;116.10;;;9.90;99.90;;;;;;5032537;28;20036;-74
2024/02/06 00:07:08;;;;;;;107.80;100.28;;;9.90;99.90;;;;;;5031598;28;20038;-74
2024/02/06 00:09:34;;;;;;;129.05;120.07;;;9.90;99.90;;;;;;5031922;28;20042;-74
2024/02/06 00:12:00;;;;;;;180.77;168.73;;;9.90;99.90;;;;;;5031506;28;20382;-74
2024/02/06 00:14:26;;;;;;;164.18;153.30;;;9.90;99.90;;;;;;5032033;28;20033;-74
2024/02/06 00:16:52;;;;;;;207.20;194.27;;;9.90;99.90;;;;;;5030976;28;20061;-74
2024/02/06 00:19:18;;;;;;;210.93;197.45;;;9.90;99.90;;;;;;5032258;28;20029;-74
2024/02/06 00:21:44;;;;;;;160.75;150.20;;;9.90;99.90;;;;;;5031462;28;20037;-75
2024/02/06 00:24:11;;;;;;;188.02;175.13;;;9.90;99.90;;;;;;5032143;28;20025;-74
2024/02/06 00:26:37;;;;;;;184.60;172.35;;;9.90;99.90;;;;;;5030660;28;20037;-74
2024/02/06 00:29:03;;;;;;;162.73;152.25;;;9.90;99.90;;;;;;5031960;28;20045;-74
2024/02/06 00:31:29;;;;;;;142.85;133.50;;;9.90;99.90;;;;;;5031297;28;20041;-74
2024/02/06 00:33:55;;;;;;;149.82;139.50;;;9.90;99.90;;;;;;5032048;28;20049;-74
2024/02/06 00:36:21;;;;;;;105.97;98.30;;;10.00;99.90;;;;;;5030601;28;20052;-74
2024/02/06 00:38:48;;;;;;;110.85;103.15;;;10.00;99.90;;;;;;5031519;28;20025;-74
2024/02/06 00:41:14;;;;;;;118.43;110.57;;;10.00;99.90;;;;;;5030676;28;20060;-74
2024/02/06 00:43:40;;;;;;;109.35;101.60;;;10.00;99.90;;;;;;5031983;28;20458;-74
2024/02/06 00:46:06;;;;;;;109.45;101.95;;;10.00;99.90;;;;;;5030978;28;20033;-74
2024/02/06 00:48:33;;;;;;;109.85;101.90;;;10.00;99.90;;;;;;5031752;28;20374;-74
2024/02/06 00:50:59;;;;;;;114.97;106.93;;;10.10;99.90;;;;;;5030479;28;20462;-74
2024/02/06 00:53:25;;;;;;;108.05;100.88;;;10.10;99.90;;;;;;5031886;28;20026;-74
2024/02/06 00:55:51;;;;;;;107.63;100.20;;;10.10;99.90;;;;;;5031388;28;20048;-74
2024/02/06 00:58:17;;;;;;;111.90;104.25;;;10.20;99.90;;;;;;5031638;28;20045;-74
2024/02/06 01:00:43;;;;;;;123.50;115.63;;;10.20;99.90;;;;;;5030828;28;20041;-73
2024/02/06 01:03:09;;;;;;;235.50;220.88;;;10.20;99.90;;;;;;5031538;28;20040;-74
2024/02/06 01:05:35;;;;;;;148.38;138.82;;;10.20;99.90;;;;;;5031013;28;20030;-74
2024/02/06 01:08:02;;;;;;;108.65;101.18;;;10.20;99.90;;;;;;5031338;28;20049;-74
2024/02/06 01:10:28;;;;;;;137.43;128.32;;;10.10;99.90;;;;;;5033399;28;20036;-74
2024/02/06 01:12:54;;;;;;;139.70;130.80;;;10.10;99.90;;;;;;5035242;28;20046;-74
2024/02/06 01:15:20;;;;;;;138.15;129.25;;;10.10;99.90;;;;;;5034479;28;20219;-74
2024/02/06 01:17:46;;;;;;;144.52;135.38;;;10.10;99.90;;;;;;5035112;28;20041;-74
2024/02/06 01:20:12;;;;;;;162.50;152.13;;;10.10;99.90;;;;;;5034969;28;20030;-74
2024/02/06 01:22:38;;;;;;;137.25;128.13;;;10.10;99.90;;;;;;5035080;28;20382;-74
2024/02/06 01:25:05;;;;;;;140.23;131.00;;;10.10;99.90;;;;;;5035534;28;20033;-74
2024/02/06 01:27:31;;;;;;;185.15;173.38;;;10.10;99.90;;;;;;5035425;28;20087;-74
2024/02/06 01:29:57;;;;;;;176.32;165.23;;;10.20;99.90;;;;;;5035707;28;20462;-74
2024/02/06 01:32:23;;;;;;;144.38;135.35;;;10.20;99.90;;;;;;5034391;28;20042;-74
2024/02/06 01:34:49;;;;;;;195.60;183.27;;;10.20;99.90;;;;;;5035157;28;20018;-74
2024/02/06 01:37:15;;;;;;;156.43;146.35;;;10.20;99.90;;;;;;5035198;28;20453;-74
2024/02/06 01:39:41;;;;;;;157.27;147.40;;;10.20;99.90;;;;;;5035370;28;20034;-74
2024/02/06 01:42:07;;;;;;;181.55;170.18;;;10.20;99.90;;;;;;5034251;28;20049;-74
2024/02/06 01:44:33;;;;;;;194.13;182.13;;;10.20;99.90;;;;;;5035345;28;20034;-74
2024/02/06 01:46:59;;;;;;;196.25;183.60;;;10.20;99.90;;;;;;5034553;28;20037;-74
2024/02/06 01:49:26;;;;;;;198.80;186.50;;;10.20;99.90;;;;;;5034842;28;20046;-74
2024/02/06 01:51:52;;;;;;;195.43;183.27;;;10.20;99.90;;;;;;5034720;28;20462;-74
2024/02/06 01:54:18;;;;;;;198.85;186.60;;;10.20;99.90;;;;;;5033398;28;20049;-74
2024/02/06 01:56:44;;;;;;;190.35;178.63;;;10.20;99.90;;;;;;5033300;28;20405;-74
2024/02/06 01:59:10;;;;;;;205.75;192.88;;;10.20;99.90;;;;;;5034771;28;20048;-74
2024/02/06 02:01:37;;;;;;;189.90;178.23;;;10.20;99.90;;;;;;5034247;28;20041;-74
2024/02/06 02:04:03;;;;;;;185.32;173.27;;;10.10;99.90;;;;;;5035365;28;20030;-74
2024/02/06 02:06:29;;;;;;;169.85;158.95;;;10.10;99.90;;;;;;5033036;28;20489;-74
2024/02/06 02:08:56;;;;;;;165.48;154.73;;;10.10;99.90;;;;;;5033438;28;20033;-74
2024/02/06 02:11:22;;;;;;;220.75;207.10;;;10.20;99.90;;;;;;5033180;28;20025;-74
2024/02/06 02:13:50;;;;;;;201.90;189.15;;;10.20;99.90;;;;;;5034681;28;20037;-74
2024/02/06 02:16:19;;;;;;;199.43;186.75;;;10.20;99.90;;;;;;5015806;28;20445;-74
2024/02/06 02:18:45;;;;;;;182.48;171.30;;;10.20;99.90;;;;;;5032169;28;20053;-74
2024/02/06 02:21:12;;;;;;;171.20;160.13;;;10.20;99.90;;;;;;5033264;28;20032;-74
2024/02/06 02:23:38;;;;;;;174.55;163.43;;;10.10;99.90;;;;;;5032611;28;20030;-74
2024/02/06 02:26:06;;;;;;;161.55;151.40;;;10.20;99.90;;;;;;5032793;28;20033;-74
2024/02/06 02:28:32;;;;;;;148.00;138.63;;;10.10;99.90;;;;;;5032591;28;20056;-74
2024/02/06 02:30:58;;;;;;;132.85;124.15;;;10.10;99.90;;;;;;5015563;28;20033;-74
2024/02/06 02:33:24;;;;;;;111.18;103.75;;;10.10;99.90;;;;;;5015028;28;20093;-73
2024/02/06 02:35:53;;;;;;;122.47;114.50;;;10.10;99.90;;;;;;5032280;28;20049;-74
2024/02/06 02:38:20;;;;;;;122.78;114.75;;;10.20;99.90;;;;;;5033798;28;20033;-74
2024/02/06 02:40:46;;;;;;;153.95;144.50;;;10.20;99.90;;;;;;5032835;28;20042;-74
2024/02/06 02:43:12;;;;;;;131.48;123.30;;;10.10;99.90;;;;;;5033880;28;20025;-74
2024/02/06 02:45:38;;;;;;;129.65;121.20;;;10.10;99.90;;;;;;5033135;28;20040;-74
2024/02/06 02:48:05;;;;;;;125.53;117.55;;;10.20;99.90;;;;;;5033748;28;20363;-74
2024/02/06 02:50:31;;;;;;;121.18;113.30;;;10.20;99.90;;;;;;5033713;28;20021;-74
2024/02/06 02:52:57;;;;;;;166.93;157.07;;;10.20;99.90;;;;;;5033764;28;20500;-74
2024/02/06 02:55:23;;;;;;;138.98;129.73;;;10.20;99.90;;;;;;5031245;28;20068;-74
2024/02/06 02:57:49;;;;;;;151.10;141.38;;;10.20;99.90;;;;;;5033771;28;20030;-74
2024/02/06 03:00:16;;;;;;;134.27;125.68;;;10.20;99.90;;;;;;5029275;28;20080;-74
2024/02/06 03:02:42;;;;;;;140.90;132.15;;;10.20;99.90;;;;;;5030795;28;20036;-74
2024/02/06 03:05:08;;;;;;;142.85;133.95;;;10.20;99.90;;;;;;5021227;28;20025;-74
2024/02/06 03:07:34;;;;;;;147.82;138.50;;;10.20;99.90;;;;;;5031087;28;20395;-74
2024/02/06 03:10:00;;;;;;;181.65;170.63;;;10.20;99.90;;;;;;5031992;28;20509;-74
2024/02/06 03:12:31;;;;;;;199.15;187.05;;;10.20;99.90;;;;;;5031282;28;20033;-74
2024/02/06 03:15:00;;;;;;;;;;;10.10;99.90;;;;;;5032369;28;20037;-74
2024/02/06 03:17:26;;;;;;;185.70;174.30;;;10.10;99.90;;;;;;5030663;28;19925;-73
2024/02/06 03:19:53;;;;;;;191.88;180.40;;;10.10;99.90;;;;;;5032012;28;20064;-74
2024/02/06 03:22:23;;;;;;;206.13;193.60;;;10.10;99.90;;;;;;5031477;28;20387;-74
2024/02/06 03:24:49;;;;;;;237.45;223.38;;;10.10;99.90;;;;;;5031635;28;20026;-74
2024/02/06 03:27:16;;;;;;;233.73;219.68;;;10.10;99.90;;;;;;5030085;28;20038;-74
2024/02/06 03:29:42;;;;;;;236.27;222.25;;;10.10;99.90;;;;;;5031136;28;20109;-74
2024/02/06 03:32:09;;;;;;;254.35;239.23;;;10.20;99.90;;;;;;5029224;28;20398;-74
2024/02/06 03:34:35;;;;;;;237.52;223.20;;;10.20;99.90;;;;;;5029893;28;20390;-73
2024/02/06 03:37:02;;;;;;;227.27;213.57;;;10.20;99.90;;;;;;5031716;28;20045;-74
2024/02/06 03:39:28;;;;;;;224.35;210.85;;;10.10;99.90;;;;;;5031864;28;20501;-74
2024/02/06 03:41:54;;;;;;;232.40;217.98;;;10.10;99.90;;;;;;5032090;28;20049;-74
2024/02/06 03:44:21;;;;;;;256.00;240.50;;;10.10;99.90;;;;;;5032175;28;20022;-75
2024/02/06 03:46:48;;;;;;;254.07;238.43;;;10.00;99.90;;;;;;5030202;28;20045;-74
2024/02/06 03:49:14;;;;;;;234.90;220.65;;;10.00;99.90;;;;;;5031894;28;20048;-74
2024/02/06 03:51:40;;;;;;;201.23;188.77;;;10.00;99.90;;;;;;5030053;28;20159;-74
2024/02/06 03:54:06;;;;;;;240.43;225.77;;;10.00;99.90;;;;;;5032028;28;20041;-74
2024/02/06 03:56:32;;;;;;;191.98;179.75;;;10.10;99.90;;;;;;5031370;28;20044;-74
2024/02/06 03:58:58;;;;;;;229.27;214.93;;;10.10;99.90;;;;;;5015420;28;20029;-74
2024/02/06 04:01:24;;;;;;;264.95;248.65;;;10.00;99.90;;;;;;5030655;28;20037;-74
2024/02/06 04:03:50;;;;;;;264.52;248.13;;;10.00;99.90;;;;;;5019019;28;20037;-74
2024/02/06 04:06:18;;;;;;;227.23;213.18;;;10.10;99.90;;;;;;5031915;28;20032;-74
2024/02/06 04:08:45;;;;;;;194.77;183.02;;;10.00;99.90;;;;;;5032292;28;20041;-74
2024/02/06 04:11:12;;;;;;;162.18;152.25;;;10.10;99.90;;;;;;5031707;28;20044;-74
2024/02/06 04:13:38;;;;;;;106.22;99.28;;;10.10;99.90;;;;;;5031817;28;20029;-74
2024/02/06 04:16:05;;;;;;;119.65;111.60;;;10.10;99.90;;;;;;5030599;28;20405;-74
2024/02/06 04:18:32;;;;;;;91.72;85.82;;;10.10;99.90;;;;;;5032073;28;20048;-74
2024/02/06 04:20:58;;;;;;;91.82;85.90;;;10.10;99.90;;;;;;5031509;28;20029;-74
2024/02/06 04:23:24;;;;;;;114.53;107.10;;;10.20;99.90;;;;;;5029010;28;20681;-73
2024/02/06 04:25:50;;;;;;;98.65;92.38;;;10.20;99.90;;;;;;5030524;28;20034;-74
2024/02/06 04:28:16;;;;;;;97.93;91.68;;;10.20;99.90;;;;;;5030954;28;20386;-74
2024/02/06 04:30:42;;;;;;;130.40;122.40;;;10.30;99.90;;;;;;5031266;28;20038;-74
2024/02/06 04:33:08;;;;;;;178.30;167.85;;;10.30;99.90;;;;;;5031925;28;20037;-74
2024/02/06 04:35:36;;;;;;;173.13;162.85;;;10.30;99.90;;;;;;5031352;28;20033;-74
2024/02/06 04:38:02;;;;;;;158.30;148.93;;;10.20;99.90;;;;;;5032031;28;20029;-74
2024/02/06 04:40:29;;;;;;;167.38;157.50;;;10.20;99.90;;;;;;5031008;28;21355;-74
2024/02/06 04:42:55;;;;;;;167.10;157.55;;;10.20;99.90;;;;;;5031654;28;20136;-74
2024/02/06 04:45:22;;;;;;;176.10;165.95;;;10.20;99.90;;;;;;5030801;28;20037;-74
2024/02/06 04:47:48;;;;;;;148.73;139.82;;;10.20;99.90;;;;;;5031611;28;20032;-74
2024/02/06 04:50:15;;;;;;;133.18;125.15;;;10.30;99.90;;;;;;5031513;28;20037;-74
2024/02/06 04:52:41;;;;;;;124.32;116.72;;;10.20;99.90;;;;;;5030405;28;20037;-74
2024/02/06 04:55:09;;;;;;;136.70;128.40;;;10.20;99.90;;;;;;5031300;28;20040;-74
2024/02/06 04:57:35;;;;;;;113.03;105.95;;;10.30;99.90;;;;;;5029046;28;20057;-74
2024/02/06 05:00:03;;;;;;;117.38;109.85;;;10.30;99.90;;;;;;5031817;28;20467;-74
2024/02/06 05:02:29;;;;;;;121.20;113.70;;;10.30;99.90;;;;;;5030615;28;20053;-74
2024/02/06 05:04:55;;;;;;;121.57;113.72;;;10.30;99.90;;;;;;5031524;28;20037;-74
2024/02/06 05:07:21;;;;;;;133.63;125.43;;;10.30;99.90;;;;;;5031227;28;20025;-74
2024/02/06 05:09:48;;;;;;;120.28;113.03;;;10.30;99.90;;;;;;5031633;28;20025;-74
2024/02/06 05:12:14;;;;;;;120.05;112.80;;;10.20;99.90;;;;;;5031190;28;20033;-74
2024/02/06 05:14:40;;;;;;;118.45;111.15;;;10.30;99.90;;;;;;5031564;28;20474;-74
2024/02/06 05:17:06;;;;;;;111.35;104.35;;;10.20;99.90;;;;;;5030596;28;20045;-74
2024/02/06 05:19:33;;;;;;;111.40;104.72;;;10.30;99.90;;;;;;5031766;28;20029;-74
2024/02/06 05:21:59;;;;;;;115.45;108.13;;;10.30;99.90;;;;;;5030458;28;20041;-74
2024/02/06 05:24:26;;;;;;;161.85;150.23;;;10.30;99.90;;;;;;5031633;28;20509;-74
2024/02/06 05:26:53;;;;;;;123.50;113.30;;;10.30;99.90;;;;;;5028490;28;20533;-74
2024/02/06 05:29:21;;;;;;;147.07;138.30;;;10.30;99.90;;;;;;5030047;28;20029;-74
2024/02/06 05:31:47;;;;;;;129.38;121.68;;;10.30;99.90;;;;;;5030717;28;20038;-74
2024/02/06 05:34:14;;;;;;;142.32;133.60;;;10.20;99.90;;;;;;5031392;28;20037;-74
2024/02/06 05:36:40;;;;;;;127.57;119.95;;;10.20;99.90;;;;;;5029780;28;20037;-74
2024/02/06 05:39:06;;;;;;;155.63;146.07;;;10.30;99.90;;;;;;5031060;28;20025;-74
2024/02/06 05:41:33;;;;;;;142.23;133.93;;;10.30;99.90;;;;;;5029236;28;20176;-74
2024/02/06 05:43:59;;;;;;;145.45;136.98;;;10.30;99.90;;;;;;5031431;28;20438;-74
2024/02/06 05:46:25;;;;;;;122.47;115.05;;;10.30;99.90;;;;;;5030550;28;20056;-74
2024/02/06 05:48:51;;;;;;;124.30;116.50;;;10.30;99.90;;;;;;5031114;28;20466;-73
2024/02/06 05:51:18;;;;;;;121.93;114.57;;;10.30;99.90;;;;;;5031111;28;20032;-74
2024/02/06 05:53:44;;;;;;;130.93;123.38;;;10.30;99.90;;;;;;5030584;28;20037;-73
2024/02/06 05:56:10;;;;;;;123.53;115.82;;;10.20;99.90;;;;;;5031244;28;20041;-73
2024/02/06 05:58:38;;;;;;;122.68;115.50;;;10.20;99.90;;;;;;5034408;28;20054;-73
2024/02/06 06:01:04;;;;;;;113.47;106.43;;;10.20;99.90;;;;;;5033749;28;20049;-73
2024/02/06 06:03:31;;;;;;;117.18;110.40;;;10.20;99.90;;;;;;5034851;28;20037;-73
2024/02/06 06:05:57;;;;;;;117.90;110.85;;;10.20;99.90;;;;;;5064976;28;20037;-73
2024/02/06 06:08:23;;;;;;;105.57;99.10;;;10.20;99.90;;;;;;5034759;28;20052;-73
2024/02/06 06:10:49;;;;;;;104.80;98.45;;;10.20;99.90;;;;;;5032267;28;20029;-73
2024/02/06 06:13:15;;;;;;;95.32;89.53;;;10.20;99.90;;;;;;5034030;28;20037;-74
2024/02/06 06:15:41;;;;;;;97.15;91.28;;;10.30;99.90;;;;;;5033704;28;20509;-73
2024/02/06 06:18:07;;;;;;;99.13;92.93;;;10.30;99.90;;;;;;5034447;28;20025;-73
2024/02/06 06:20:34;;;;;;;105.68;99.15;;;10.30;99.90;;;;;;5034251;28;20025;-73
2024/02/06 06:23:00;;;;;;;106.13;99.82;;;10.20;99.90;;;;;;5034190;28;20028;-73
2024/02/06 06:25:26;;;;;;;105.90;99.57;;;10.20;99.90;;;;;;5033868;28;20034;-73
2024/02/06 06:27:52;;;;;;;99.93;93.80;;;10.20;99.90;;;;;;5034388;28;20492;-73
2024/02/06 06:30:18;;;;;;;102.30;96.25;;;10.20;99.90;;;;;;5033041;28;20029;-73
2024/02/06 06:32:44;;;;;;;108.05;101.35;;;10.20;99.90;;;;;;5034298;28;20030;-72
2024/02/06 06:35:10;;;;;;;111.53;104.95;;;10.20;99.90;;;;;;5033546;28;20383;-73
2024/02/06 06:37:36;;;;;;;103.38;97.25;;;10.20;99.90;;;;;;5033945;28;20048;-73
2024/02/06 06:40:04;;;;;;;99.20;93.45;;;10.30;99.90;;;;;;5033445;28;20382;-73
2024/02/06 06:42:31;;;;;;;101.97;95.97;;;10.30;99.90;;;;;;5033333;28;20060;-73
2024/02/06 06:44:57;;;;;;;101.32;95.20;;;10.30;99.90;;;;;;5032950;28;20049;-74
2024/02/06 06:47:23;;;;;;;97.28;91.75;;;10.30;99.90;;;;;;5033044;28;20041;-73
2024/02/06 06:49:50;;;;;;;103.22;97.07;;;10.20;99.90;;;;;;5033990;28;20032;-73
2024/02/06 06:52:16;;;;;;;105.18;99.13;;;10.20;99.90;;;;;;5042448;28;20060;-73
2024/02/06 06:54:42;;;;;;;102.75;96.80;;;10.20;99.90;;;;;;5013698;28;20041;-73
2024/02/06 06:57:08;;;;;;;103.70;97.47;;;10.20;99.90;;;;;;5029689;28;20049;-73
2024/02/06 06:59:34;;;;;;;99.30;93.32;;;10.20;99.90;;;;;;5033172;28;20037;-73
2024/02/06 07:02:00;;;;;;;101.60;95.93;;;10.20;99.90;;;;;;5033046;28;20049;-73
2024/02/06 07:04:27;;;;;;;108.75;102.53;;;10.20;99.90;;;;;;5032579;28;20483;-74
2024/02/06 07:06:54;;;;;;;101.32;95.40;;;10.20;99.90;;;;;;5031887;28;20049;-73
2024/02/06 07:09:21;;;;;;;100.38;94.68;;;10.20;99.90;;;;;;5033347;28;20021;-74
2024/02/06 07:11:48;;;;;;;101.57;94.97;;;10.30;99.90;;;;;;5033395;28;20737;-73
2024/02/06 07:14:15;;;;;;;110.38;103.82;;;10.30;99.90;;;;;;5032978;28;20029;-80
2024/02/06 07:16:41;;;;;;;103.15;97.22;;;10.30;99.90;;;;;;5032691;28;20052;-75
2024/02/06 07:19:07;;;;;;;103.95;97.90;;;10.20;99.90;;;;;;5033345;28;20040;-74
2024/02/06 07:21:33;;;;;;;111.35;104.88;;;10.30;99.90;;;;;;5033648;28;20026;-74
2024/02/06 07:24:00;;;;;;;104.97;99.00;;;10.30;99.90;;;;;;5031092;28;20033;-74
2024/02/06 07:26:27;;;;;;;111.90;105.53;;;10.30;99.90;;;;;;5031401;28;20037;-74
2024/02/06 07:28:57;;;;;;;113.13;106.43;;;10.40;99.90;;;;;;5033459;28;20028;-74
2024/02/06 07:31:23;;;;;;;106.63;100.47;;;10.30;99.90;;;;;;5032179;28;20390;-75
2024/02/06 07:33:50;;;;;;;102.97;96.55;;;10.30;99.90;;;;;;5031388;28;20056;-74
2024/02/06 07:36:16;;;;;;;108.53;102.32;;;10.40;99.90;;;;;;5031700;28;20026;-74
2024/02/06 07:38:42;;;;;;;112.32;105.53;;;10.40;99.90;;;;;;5012992;28;20489;-75
2024/02/06 07:41:08;;;;;;;112.60;106.13;;;10.50;99.90;;;;;;5031358;28;20048;-75
2024/02/06 07:43:37;;;;;;;108.82;102.47;;;10.50;99.90;;;;;;5028353;28;20025;-75
2024/02/06 07:46:07;;;;;;;110.60;104.22;;;10.50;99.90;;;;;;5032357;28;20342;-75
2024/02/06 07:48:33;;;;;;;110.65;104.20;;;10.50;99.90;;;;;;5012214;28;20544;-75
2024/02/06 07:50:59;;;;;;;115.80;109.15;;;10.50;99.90;;;;;;5012803;28;20371;-74
2024/02/06 07:53:25;;;;;;;117.30;110.40;;;10.50;99.90;;;;;;5022169;28;20026;-74
2024/02/06 07:55:51;;;;;;;110.97;104.47;;;10.50;99.90;;;;;;5031974;28;20042;-74
2024/02/06 07:58:17;;;;;;;111.95;105.50;;;10.50;99.90;;;;;;5013444;28;20038;-75
2024/02/06 08:00:43;;;;;;;109.72;103.15;;;10.40;99.90;;;;;;5014256;28;20047;-75
2024/02/06 08:03:12;;;;;;;114.90;108.25;;;10.30;99.90;;;;;;5012710;28;20026;-75
2024/02/06 08:05:38;;;;;;;110.05;102.90;;;10.40;99.90;;;;;;5012352;28;20026;-75
2024/02/06 08:08:05;;;;;;;115.00;108.38;;;10.40;99.90;;;;;;5013376;28;20030;-75
2024/02/06 08:10:31;;;;;;;102.60;96.63;;;10.40;99.90;;;;;;5012859;28;20479;-75
2024/02/06 08:12:57;;;;;;;104.20;98.10;;;10.40;99.90;;;;;;5030602;28;20380;-75
2024/02/06 08:15:23;;;;;;;106.28;100.05;;;10.40;99.90;;;;;;5031847;28;20041;-75
2024/02/06 08:17:50;;;;;;;94.72;88.72;;;10.40;99.90;;;;;;5030029;28;20053;-73
2024/02/06 08:20:17;;;;;;;102.07;96.18;;;10.50;99.90;;;;;;5029840;28;20506;-78
2024/02/06 08:22:43;;;;;;;109.90;103.50;;;10.50;99.90;;;;;;5031535;28;20037;-73
2024/02/06 08:25:10;;;;;;;120.20;113.00;;;10.50;99.90;;;;;;5032712;28;20042;-73
2024/02/06 08:27:36;;;;;;;112.90;106.32;;;10.50;99.90;;;;;;5032289;28;20044;-73
2024/02/06 08:30:05;;;;;;;98.80;92.93;;;10.50;99.90;;;;;;5014449;28;20044;-75
2024/02/06 08:32:31;;;;;;;106.10;99.70;;;10.40;99.90;;;;;;5031390;28;20042;-76
2024/02/06 08:34:58;;;;;;;90.38;84.82;;;10.40;99.90;;;;;;5031580;28;20479;-76
2024/02/06 08:37:24;;;;;;;98.03;92.28;;;10.40;99.90;;;;;;5031949;28;20447;-76
2024/02/06 08:39:50;;;;;;;88.70;83.25;;;10.40;99.90;;;;;;5031697;28;20037;-75
2024/02/06 08:42:17;;;;;;;105.53;99.28;;;10.30;99.90;;;;;;5031573;28;20418;-73
2024/02/06 08:44:43;;;;;;;102.65;96.47;;;10.40;99.90;;;;;;5032150;28;20053;-74
2024/02/06 08:47:09;;;;;;;110.68;103.75;;;10.40;99.90;;;;;;5030865;28;20060;-73
2024/02/06 08:49:36;;;;;;;98.25;92.13;;;10.40;99.90;;;;;;5031689;28;20026;-73
2024/02/06 08:52:02;;;;;;;118.70;110.53;;;10.40;99.90;;;;;;5031853;28;20033;-73
2024/02/06 08:54:28;;;;;;;161.90;152.45;;;10.40;99.90;;;;;;5031894;28;20363;-73
2024/02/06 08:56:54;;;;;;;150.73;142.27;;;10.40;99.90;;;;;;5031607;28;20037;-73
2024/02/06 08:59:20;;;;;;;163.65;154.48;;;10.50;99.90;;;;;;5031893;28;20045;-74
2024/02/06 09:01:46;;;;;;;145.15;136.60;;;10.50;99.90;;;;;;5031100;28;20060;-73
2024/02/06 09:04:13;;;;;;;276.02;259.50;;;10.50;99.90;;;;;;5031696;28;20038;-73
2024/02/06 09:06:39;;;;;;;203.20;190.80;;;10.60;99.90;;;;;;5031549;28;20040;-73
2024/02/06 09:09:05;;;;;;;177.98;166.82;;;10.60;99.90;;;;;;5031577;28;20041;-73
2024/02/06 09:11:32;;;;;;;180.30;168.00;;;10.60;99.90;;;;;;5031439;28;20033;-73
2024/02/06 09:13:58;;;;;;;171.52;161.35;;;10.70;99.90;;;;;;5031970;28;20025;-74
2024/02/06 09:16:25;;;;;;;208.70;196.57;;;10.70;99.90;;;;;;5030738;28;20033;-74
2024/02/06 09:18:55;;;;;;;210.45;198.07;;;10.60;99.90;;;;;;5031464;28;20502;-76
2024/02/06 09:21:21;;;;;;;203.93;191.80;;;10.60;99.90;;;;;;5031424;28;20355;-76
2024/02/06 09:23:47;;;;;;;197.52;186.05;;;10.50;99.90;;;;;;5030685;28;20385;-76
2024/02/06 09:26:15;;;;;;;160.32;150.98;;;10.50;99.90;;;;;;5031529;28;20032;-73
2024/02/06 09:28:42;;;;;;;141.95;133.43;;;10.50;99.90;;;;;;5031913;28;20021;-74
2024/02/06 09:31:09;;;;;;;217.77;204.02;;;10.60;99.90;;;;;;5031893;28;20033;-73
2024/02/06 09:33:35;;;;;;;154.85;143.77;;;10.80;99.90;;;;;;5035310;28;20029;-73
2024/02/06 09:36:05;;;;;;;181.38;169.85;;;11.00;99.90;;;;;;5035356;28;20037;-74
2024/02/06 09:38:31;;;;;;;303.58;283.75;;;11.30;99.90;;;;;;5035288;28;20391;-74
2024/02/06 09:40:57;;;;;;;225.00;211.52;;;11.50;99.90;;;;;;5035008;28;20042;-73
2024/02/06 09:43:24;;;;;;;194.07;182.65;;;11.70;99.90;;;;;;5033817;28;20041;-73
2024/02/06 09:45:50;;;;;;;373.48;351.88;;;11.80;99.90;;;;;;5034314;28;20041;-74
2024/02/06 09:48:16;;;;;;;261.85;247.07;;;11.80;99.90;;;;;;5033632;28;20037;-73
2024/02/06 09:50:43;;;;;;;187.65;175.93;;;12.00;99.90;;;;;;5034669;28;20049;-74
2024/02/06 09:53:09;;;;;;;243.43;228.40;;;12.10;99.90;;;;;;5035140;28;20466;-74
2024/02/06 09:55:41;;;;;;;632.42;374.77;;;12.30;99.90;;;;;;5034808;28;20029;-73
2024/02/06 09:58:08;;;;;;;1999.90;999.90;;;12.40;99.90;;;;;;5033691;28;20052;-73
2024/02/06 10:00:36;;;;;;;1999.90;999.90;;;12.50;99.90;;;;;;5033224;28;20041;-74
2024/02/06 10:03:03;;;;;;;1999.90;999.90;;;12.60;99.90;;;;;;5033379;28;20026;-76
2024/02/06 10:05:34;;;;;;;1999.90;999.90;;;12.70;99.90;;;;;;5017087;28;20370;-73
2024/02/06 10:08:00;;;;;;;1999.90;999.90;;;12.70;99.90;;;;;;5033272;28;20045;-74
2024/02/06 10:10:26;;;;;;;1999.90;999.90;;;12.80;99.90;;;;;;5034435;28;20082;-74
2024/02/06 10:12:52;;;;;;;1999.90;999.90;;;12.90;99.90;;;;;;5033780;28;20040;-74
2024/02/06 10:15:19;;;;;;;1999.90;999.90;;;12.90;99.90;;;;;;5034172;28;20037;-74
2024/02/06 10:17:45;;;;;;;1999.90;999.90;;;12.90;99.90;;;;;;5033594;28;20060;-74
2024/02/06 10:20:12;;;;;;;1999.90;999.90;;;13.00;99.90;;;;;;5034323;28;20470;-76
2024/02/06 10:22:39;;;;;;;1999.90;999.90;;;13.00;99.90;;;;;;5033518;28;20034;-74
2024/02/06 10:25:08;;;;;;;1999.90;999.90;;;13.10;99.90;;;;;;5034650;28;20037;-74
2024/02/06 10:27:34;;;;;;;1999.90;999.90;;;13.10;99.90;;;;;;5033121;28;20045;-76
2024/02/06 10:30:01;;;;;;;1999.90;999.90;;;13.30;99.90;;;;;;5033157;28;20052;-76
2024/02/06 10:32:33;;;;;;;1999.90;999.90;;;13.40;99.90;;;;;;5032768;28;20060;-74
2024/02/06 10:35:01;;;;;;;1999.90;999.90;;;13.40;99.90;;;;;;5033317;28;20454;-74
2024/02/06 10:37:27;;;;;;;1999.90;999.90;;;13.50;99.90;;;;;;5030779;28;20088;-74
2024/02/06 10:39:54;;;;;;;1999.90;999.90;;;13.50;99.90;;;;;;5033684;28;20041;-74
2024/02/06 10:42:20;;;;;;;1999.90;999.90;;;13.60;99.90;;;;;;5031534;28;20379;-74
2024/02/06 10:44:46;;;;;;;1999.90;999.90;;;13.70;99.90;;;;;;5033059;28;20033;-73
2024/02/06 10:47:15;;;;;;;1999.90;999.90;;;13.70;99.90;;;;;;5029939;28;20041;-74
2024/02/06 10:49:41;;;;;;;1999.90;999.90;;;13.80;99.90;;;;;;5037268;28;20029;-74
2024/02/06 10:52:08;;;;;;;1999.90;999.90;;;13.90;99.90;;;;;;5036351;28;20045;-73
2024/02/06 10:54:34;;;;;;;1999.90;999.90;;;13.90;99.90;;;;;;5032681;28;20026;-74
2024/02/06 10:57:08;;;;;;;1999.90;999.90;;;13.90;99.90;;;;;;5032275;28;20386;-74
2024/02/06 10:59:49;;;;;;;1999.90;999.90;;;13.90;99.90;;;;;;5033480;28;20034;-74
2024/02/06 11:02:29;;;;;;;1999.90;999.90;;;14.00;99.90;;;;;;5031393;28;20030;-74
2024/02/06 11:05:09;;;;;;;1999.90;999.90;;;13.90;99.90;;;;;;5016473;28;20072;-74
2024/02/06 11:07:43;;;;;;;1999.90;999.90;;;13.90;99.90;;;;;;5000268;28;20041;-74
2024/02/06 11:10:10;;;;;;;1999.90;999.90;;;14.00;99.90;;;;;;5032435;28;20036;-74
2024/02/06 11:12:36;;;;;;;1999.90;999.90;;;14.10;99.90;;;;;;5012880;28;20030;-75
2024/02/06 11:15:05;;;;;;;1999.90;999.90;;;14.10;99.90;;;;;;4995768;28;20026;-72
2024/02/06 11:17:31;;;;;;;1999.90;999.90;;;14.10;99.90;;;;;;5015080;28;20386;-74
2024/02/06 11:20:04;;;;;;;1999.90;999.90;;;14.20;99.90;;;;;;5033694;28;20025;-76
2024/02/06 11:22:42;;;;;;;1999.90;999.90;;;14.20;99.90;;;;;;5033315;28;20025;-76
2024/02/06 11:25:18;;;;;;;1999.90;999.90;;;14.30;99.90;;;;;;5015952;28;20044;-76
2024/02/06 11:27:44;;;;;;;1999.90;999.90;;;14.30;99.90;;;;;;5030585;28;20900;-74
2024/02/06 11:30:11;;;;;;;1999.90;999.90;;;14.20;99.90;;;;;;5030659;28;20032;-75
2024/02/06 11:32:37;;;;;;;1999.90;999.90;;;14.30;99.90;;;;;;5030583;28;20040;-74
2024/02/06 11:35:04;;;;;;;1999.90;999.90;;;14.30;99.90;;;;;;5017444;28;20037;-73
2024/02/06 11:37:30;;;;;;;1999.90;999.90;;;14.30;99.90;;;;;;5026795;28;20045;-76
2024/02/06 11:40:06;;;;;;;1999.90;999.90;;;14.30;99.90;;;;;;5016407;28;20053;-77
2024/02/06 11:42:33;;;;;;;1999.90;999.90;;;14.30;99.90;;;;;;5031980;28;20041;-77
2024/02/06 11:45:18;;;;;;;1999.90;999.90;;;14.30;99.90;;;;;;5029302;28;20048;-77
2024/02/06 11:47:58;;;;;;;1999.90;999.90;;;14.40;99.90;;;;;;5031888;28;20046;-77
2024/02/06 11:50:34;;;;;;;1999.90;999.90;;;14.40;99.90;;;;;;5030523;28;20057;-77
2024/02/06 11:53:13;;;;;;;1999.90;999.90;;;14.30;99.90;;;;;;5030720;28;20026;-77
2024/02/06 11:55:45;;;;;;;1999.90;999.90;;;14.40;99.90;;;;;;5031827;28;20489;-76
2024/02/06 11:58:11;;;;;;;1999.90;999.90;;;14.50;99.90;;;;;;5021721;28;20048;-77
2024/02/06 12:00:38;;;;;;;1999.90;999.90;;;14.60;99.90;;;;;;5029340;28;20041;-77
2024/02/06 12:03:04;;;;;;;1999.90;999.90;;;14.70;99.90;;;;;;5005445;28;20090;-77
2024/02/06 12:05:37;;;;;;;1999.90;999.90;;;14.70;99.90;;;;;;5020197;28;20053;-76
2024/02/06 12:08:04;;;;;;;1999.90;999.90;;;14.70;99.90;;;;;;5011986;28;20046;-76